Bluffton, IN

8:37 PM EDT on April 30, 2017 (GMT -0400)
Rigby Timbers | | Change Station

Elev 856 ft 40.71 °N, 85.17 °W | Updated 31 seconds ago

Rain
Rain
63.4 °F
Feels Like 63.4 °F
N
4.0
Wind Variable Wind from West

Today
High -- | Low -- °F
--% Chance of Precip.
Yesterday
High -- | Low -- °F
Precip. -- in
Pressure 29.75 in
Visibility 3.0 miles
Clouds Mostly Cloudy 4000 ft
Mostly Cloudy 6000 ft
Overcast 11000 ft
Dew Point 63 °F
Humidity 98%
Rainfall 0.89 in
Snow Depth Not available.
6:40 AM 8:36 PM
Waxing Crescent, 27% visible
SPECI KFWA 010026Z 00000KT 3SM RA BR BKN040 BKN060 OVC110 18/17 A2975 RMK AO2 LTG DSNT NE AND SW RAB2358 TSE2358 P0018 T01780167
Pressure 29.75 in
Visibility 3.0 miles
Clouds Mostly Cloudy 4000 ft
Mostly Cloudy 6000 ft
Overcast 11000 ft
Dew Point 63 °F
Humidity 98%
Rainfall 0.89 in
Snow Depth Not available.
6:40 AM 8:36 PM
Waxing Crescent, 27% visible
SPECI KFWA 010026Z 00000KT 3SM RA BR BKN040 BKN060 OVC110 18/17 A2975 RMK AO2 LTG DSNT NE AND SW RAB2358 TSE2358 P0018 T01780167

Get Severe Weather Alerts

Thanks for signing up!

Be on the lookout for a verification email in your inbox.

You'll start receiving the daily forecast at 8 AM.

×

10-Day Weather Forecast

Almanac

Astronomy

Apr. 30, 2017 Rise Set
Actual Time
Civil Twilight
Nautical Twilight
Astronomical Twilight
Moon
Length of Visible Light
Length of Day
Tomorrow will be .
, % of the Moon is Illuminated

Today's Extremes

State Highs State Lows

Community

WunderPhotos

WunderBlog® & News

Nearby

Air Quality

  Air Quality AQ Index Pollutant
Not available.

Snow Depth

Station Depth Elevation

Earthquake Activity

City Distance Mag. Time & Date
Minimum magnitude displayed is 2.5.

Coastal Water Temperatures

Place Temperature

Stations

Nearby Weather Stations

Station Location Temp. Windchill Dew Point Humidity Wind Precip. Elev Updated Type
                   

Watches & Warnings

There are currently no watches in effect.